34M weather

Campbell Municipal Airport
Campbell, Missouri, United States

Public forecast

Using degrees Fahrenheit for public forecast. Weather courtesy of forecast.io.

Closest aviation weather report (METAR) to Campbell Municipal Airport

Closest report is Kennett Memorial Airport, 15.7 nm (29.1 km) S. Retrieved 2020/05/30 12:15 UTC (9 minutes ago):

KTKX 301215Z AUTO 36006KT 10SM CLR 18/14 A3018 RMK AO2

Closest aviation forecast (TAF) to Campbell Municipal Airport

Closest forecast is Cape Girardeau Regional Airport, 49.1 nm (90.9 km) NNE. Retrieved 2020/05/30 12:22 UTC (2 minutes ago):

TAF KCGI 301120Z 3012/3112 35005KT P6SM SKC FM302300 VRB04KT P6SM FEW250